createdAt,value
2018-05-21T00:00:06.883Z,1.64
2018-05-21T00:00:19.488Z,1.64
2018-05-21T00:00:32.013Z,1.64
2018-05-21T00:00:44.428Z,1.64
2018-05-21T00:00:56.849Z,1.64
2018-05-21T00:01:09.280Z,1.64
2018-05-21T00:01:21.676Z,1.64
2018-05-21T00:01:34.154Z,1.64
2018-05-21T00:01:46.570Z,1.64
2018-05-21T00:01:58.997Z,1.64
2018-05-21T00:02:11.399Z,1.64
2018-05-21T00:02:23.819Z,1.64
2018-05-21T00:02:36.237Z,1.64
2018-05-21T00:02:48.644Z,1.64
2018-05-21T00:03:01.048Z,1.64
2018-05-21T00:03:13.451Z,1.64
2018-05-21T00:03:25.863Z,1.64
2018-05-21T00:03:38.263Z,1.64
2018-05-21T00:03:50.659Z,1.64
2018-05-21T00:04:03.176Z,1.64
2018-05-21T00:04:15.597Z,1.67
2018-05-21T00:04:28.013Z,1.67
2018-05-21T00:04:40.411Z,1.67
2018-05-21T00:04:52.830Z,1.67
2018-05-21T00:05:05.238Z,1.67
2018-05-21T00:05:17.675Z,1.67
2018-05-21T00:05:30.070Z,1.67
2018-05-21T00:05:42.476Z,1.67
2018-05-21T00:05:54.903Z,1.67
2018-05-21T00:06:07.336Z,1.67
2018-05-21T00:06:19.829Z,1.67
2018-05-21T00:06:32.238Z,1.67
2018-05-21T00:06:44.739Z,1.67
2018-05-21T00:06:57.157Z,1.67
2018-05-21T00:07:09.574Z,1.67
2018-05-21T00:07:21.987Z,1.67
2018-05-21T00:07:34.390Z,1.67
2018-05-21T00:07:46.805Z,1.67
2018-05-21T00:07:59.202Z,1.67
2018-05-21T00:08:11.613Z,1.67
2018-05-21T00:08:24.024Z,1.67
2018-05-21T00:08:36.431Z,1.67
2018-05-21T00:08:48.850Z,1.67
2018-05-21T00:09:01.262Z,1.67
2018-05-21T00:09:13.688Z,1.67
2018-05-21T00:09:26.112Z,1.67
2018-05-21T00:09:38.536Z,1.67
2018-05-21T00:09:51.017Z,1.67
2018-05-21T00:10:03.416Z,1.67
2018-05-21T00:10:15.853Z,1.67
2018-05-21T00:10:28.262Z,1.67
2018-05-21T00:10:40.752Z,1.67
2018-05-21T00:10:53.147Z,1.67
2018-05-21T00:11:05.549Z,1.67
2018-05-21T00:11:17.952Z,1.67
2018-05-21T00:11:30.336Z,1.67
2018-05-21T00:11:42.759Z,1.67
2018-05-21T00:11:55.258Z,1.67
2018-05-21T00:12:07.663Z,1.67
2018-05-21T00:12:20.087Z,1.67
2018-05-21T00:12:32.499Z,1.67
2018-05-21T00:12:44.938Z,1.67
2018-05-21T00:12:57.337Z,1.67
2018-05-21T00:13:09.745Z,1.67
2018-05-21T00:13:22.149Z,1.67
2018-05-21T00:13:34.552Z,1.67
2018-05-21T00:13:46.945Z,1.67
2018-05-21T00:13:59.357Z,1.67
2018-05-21T00:14:11.846Z,1.55
2018-05-21T00:14:24.252Z,1.55
2018-05-21T00:14:36.660Z,1.55
2018-05-21T00:14:49.077Z,1.55
2018-05-21T00:15:01.500Z,1.55
2018-05-21T00:15:13.911Z,1.55
2018-05-21T00:15:26.401Z,1.55
2018-05-21T00:15:38.917Z,1.55
2018-05-21T00:15:51.503Z,1.55
2018-05-21T00:16:03.901Z,1.55
2018-05-21T00:16:16.396Z,1.55
2018-05-21T00:16:28.800Z,1.55
2018-05-21T00:16:41.466Z,1.55
2018-05-21T00:16:54.666Z,1.55
2018-05-21T00:17:07.075Z,1.55
2018-05-21T00:17:19.511Z,1.55
2018-05-21T00:17:31.917Z,1.55
2018-05-21T00:17:44.333Z,1.55
2018-05-21T00:17:56.822Z,1.55
2018-05-21T00:18:09.237Z,1.55
2018-05-21T00:18:21.735Z,1.55
2018-05-21T00:18:34.141Z,1.55
2018-05-21T00:18:46.538Z,1.55
2018-05-21T00:18:58.942Z,1.55
2018-05-21T00:19:11.348Z,1.55
2018-05-21T00:19:23.750Z,1.55
2018-05-21T00:19:36.189Z,1.55
2018-05-21T00:19:48.612Z,1.55
2018-05-21T00:20:01.019Z,1.55
2018-05-21T00:20:13.426Z,1.55
2018-05-21T00:20:25.841Z,1.55
2018-05-21T00:20:38.274Z,1.55
2018-05-21T00:20:50.689Z,1.55
2018-05-21T00:21:03.128Z,1.55
2018-05-21T00:21:15.538Z,1.55
2018-05-21T00:21:27.943Z,1.55
2018-05-21T00:21:40.344Z,1.55
2018-05-21T00:21:52.745Z,1.55
2018-05-21T00:22:05.155Z,1.55
2018-05-21T00:22:17.566Z,1.55
2018-05-21T00:22:29.966Z,1.55
2018-05-21T00:22:42.365Z,1.55
2018-05-21T00:22:54.781Z,1.55
2018-05-21T00:23:07.195Z,1.55
2018-05-21T00:23:19.630Z,1.55
2018-05-21T00:23:32.047Z,1.55
2018-05-21T00:23:44.470Z,1.55
2018-05-21T00:23:56.904Z,1.55
2018-05-21T00:24:09.415Z,1.55
2018-05-21T00:24:21.821Z,1.5
2018-05-21T00:24:34.221Z,1.5
2018-05-21T00:24:46.620Z,1.5
2018-05-21T00:24:59.157Z,1.5
2018-05-21T00:25:11.564Z,1.5
2018-05-21T00:25:23.969Z,1.5
2018-05-21T00:25:36.378Z,1.5
2018-05-21T00:25:48.776Z,1.5
2018-05-21T00:26:01.175Z,1.5
2018-05-21T00:26:13.594Z,1.5
2018-05-21T00:26:26.001Z,1.5
2018-05-21T00:26:38.406Z,1.5
2018-05-21T00:26:50.815Z,1.5
2018-05-21T00:27:03.226Z,1.5
2018-05-21T00:27:15.630Z,1.5
2018-05-21T00:27:28.122Z,1.5
2018-05-21T00:27:40.627Z,1.5
2018-05-21T00:27:53.040Z,1.5
2018-05-21T00:28:05.440Z,1.5
2018-05-21T00:28:17.936Z,1.5
2018-05-21T00:28:30.337Z,1.5
2018-05-21T00:28:42.727Z,1.5
2018-05-21T00:28:55.129Z,1.5
2018-05-21T00:29:07.526Z,1.5
2018-05-21T00:29:19.939Z,1.5
2018-05-21T00:29:32.400Z,1.5
2018-05-21T00:29:44.812Z,1.5
2018-05-21T00:29:57.236Z,1.5
2018-05-21T00:30:09.715Z,1.5
2018-05-21T00:30:22.231Z,1.5
2018-05-21T00:30:34.635Z,1.5
2018-05-21T00:30:47.175Z,1.5
2018-05-21T00:30:59.577Z,1.5
2018-05-21T00:31:12.097Z,1.5
2018-05-21T00:31:24.512Z,1.5
2018-05-21T00:31:36.904Z,1.5
2018-05-21T00:31:49.303Z,1.5
2018-05-21T00:32:01.707Z,1.5
2018-05-21T00:32:14.113Z,1.5
2018-05-21T00:32:26.518Z,1.5
2018-05-21T00:32:38.925Z,1.5
2018-05-21T00:32:51.354Z,1.5
2018-05-21T00:33:03.761Z,1.5
2018-05-21T00:33:16.168Z,1.5
2018-05-21T00:33:28.563Z,1.5
2018-05-21T00:33:40.973Z,1.5
2018-05-21T00:33:53.382Z,1.5
2018-05-21T00:34:05.806Z,1.5
2018-05-21T00:34:18.231Z,1.6
2018-05-21T00:34:30.643Z,1.6
2018-05-21T00:34:43.042Z,1.6
2018-05-21T00:34:55.547Z,1.6
2018-05-21T00:35:07.955Z,1.6
2018-05-21T00:35:20.382Z,1.6
2018-05-21T00:35:32.790Z,1.6
2018-05-21T00:35:45.216Z,1.6
2018-05-21T00:35:57.638Z,1.6
2018-05-21T00:36:10.148Z,1.6
2018-05-21T00:36:22.567Z,1.6
2018-05-21T00:36:34.967Z,1.6
2018-05-21T00:36:47.376Z,1.6
2018-05-21T00:36:59.778Z,1.6
2018-05-21T00:37:12.188Z,1.6
2018-05-21T00:37:24.621Z,1.6
2018-05-21T00:37:37.031Z,1.6
2018-05-21T00:37:49.424Z,1.6
2018-05-21T00:38:01.847Z,1.6
2018-05-21T00:38:14.256Z,1.6
2018-05-21T00:38:26.662Z,1.6
2018-05-21T00:38:39.066Z,1.6
2018-05-21T00:38:51.482Z,1.6
2018-05-21T00:39:03.970Z,1.6
2018-05-21T00:39:16.370Z,1.6
2018-05-21T00:39:28.772Z,1.6
2018-05-21T00:39:41.185Z,1.6
2018-05-21T00:39:53.652Z,1.6
2018-05-21T00:40:06.066Z,1.6
2018-05-21T00:40:18.463Z,1.6
2018-05-21T00:40:30.870Z,1.6
2018-05-21T00:40:43.370Z,1.6
2018-05-21T00:40:55.764Z,1.6
2018-05-21T00:41:08.241Z,1.6
2018-05-21T00:41:20.673Z,1.6
2018-05-21T00:41:33.074Z,1.6
2018-05-21T00:41:45.560Z,1.6
2018-05-21T00:41:57.955Z,1.6
2018-05-21T00:42:10.463Z,1.6
2018-05-21T00:42:22.896Z,1.6
2018-05-21T00:42:35.310Z,1.6
2018-05-21T00:42:47.781Z,1.6
2018-05-21T00:43:00.181Z,1.6
2018-05-21T00:43:12.610Z,1.6
2018-05-21T00:43:25.032Z,1.6
2018-05-21T00:43:37.461Z,1.6
2018-05-21T00:43:49.884Z,1.6
2018-05-21T00:44:02.491Z,1.6
2018-05-21T00:44:14.883Z,1.72
2018-05-21T00:44:27.321Z,1.72
2018-05-21T00:44:39.721Z,1.72
2018-05-21T00:44:52.129Z,1.72
2018-05-21T00:45:04.542Z,1.72
2018-05-21T00:45:17.275Z,1.72
2018-05-21T00:45:29.697Z,1.72
2018-05-21T00:45:42.087Z,1.72
2018-05-21T00:45:54.519Z,1.72
2018-05-21T00:46:06.935Z,1.72
2018-05-21T00:46:19.344Z,1.72
2018-05-21T00:46:31.748Z,1.72
2018-05-21T00:46:44.169Z,1.72
2018-05-21T00:46:56.675Z,1.72
2018-05-21T00:47:09.119Z,1.72
2018-05-21T00:47:21.532Z,1.72
2018-05-21T00:47:34.011Z,1.72
2018-05-21T00:47:46.427Z,1.72
2018-05-21T00:47:58.862Z,1.72
2018-05-21T00:48:11.267Z,1.72
2018-05-21T00:48:23.828Z,1.72
2018-05-21T00:48:36.242Z,1.72
2018-05-21T00:48:48.656Z,1.72
2018-05-21T00:49:01.055Z,1.72
2018-05-21T00:49:13.634Z,1.72
2018-05-21T00:49:26.038Z,1.72
2018-05-21T00:49:38.519Z,1.72
2018-05-21T00:49:50.917Z,1.72
2018-05-21T00:50:03.336Z,1.72
2018-05-21T00:50:15.750Z,1.72
2018-05-21T00:50:28.996Z,1.72
2018-05-21T00:50:41.400Z,1.72
2018-05-21T00:50:53.815Z,1.72
2018-05-21T00:51:06.236Z,1.72
2018-05-21T00:51:18.718Z,1.72
2018-05-21T00:51:31.124Z,1.72
2018-05-21T00:51:43.535Z,1.72
2018-05-21T00:51:55.980Z,1.72
2018-05-21T00:52:08.378Z,1.72
2018-05-21T00:52:20.800Z,1.72
2018-05-21T00:52:33.201Z,1.72
2018-05-21T00:52:45.617Z,1.72
2018-05-21T00:52:58.018Z,1.72
2018-05-21T00:53:10.424Z,1.72
2018-05-21T00:53:22.821Z,1.72
2018-05-21T00:53:35.229Z,1.72
2018-05-21T00:53:47.634Z,1.72
2018-05-21T00:54:00.048Z,1.72
2018-05-21T00:54:12.538Z,1.72
2018-05-21T00:54:24.967Z,1.65
2018-05-21T00:54:37.375Z,1.65
2018-05-21T00:54:49.782Z,1.65
2018-05-21T00:55:02.202Z,1.65
2018-05-21T00:55:14.597Z,1.65
2018-05-21T00:55:27.013Z,1.65
2018-05-21T00:55:39.419Z,1.65
2018-05-21T00:55:51.835Z,1.65
2018-05-21T00:56:04.249Z,1.65
2018-05-21T00:56:16.743Z,1.65
2018-05-21T00:56:29.145Z,1.65
2018-05-21T00:56:41.556Z,1.65
2018-05-21T00:56:53.956Z,1.65
2018-05-21T00:57:06.370Z,1.65
2018-05-21T00:57:18.773Z,1.65
2018-05-21T00:57:31.171Z,1.65
2018-05-21T00:57:43.565Z,1.65
2018-05-21T00:58:01.019Z,1.65
2018-05-21T00:58:13.415Z,1.65
2018-05-21T00:58:25.822Z,1.65
2018-05-21T00:58:38.246Z,1.65
2018-05-21T00:58:50.646Z,1.65
2018-05-21T00:59:03.042Z,1.65
2018-05-21T00:59:15.447Z,1.65
2018-05-21T00:59:27.856Z,1.65
2018-05-21T00:59:40.253Z,1.65
2018-05-21T00:59:52.658Z,1.65
2018-05-21T01:00:05.071Z,1.65
2018-05-21T01:00:17.674Z,1.65
2018-05-21T01:00:30.145Z,1.65
2018-05-21T01:00:42.646Z,1.65
2018-05-21T01:00:55.076Z,1.65
2018-05-21T01:01:07.497Z,1.65
2018-05-21T01:01:19.904Z,1.65
2018-05-21T01:01:32.322Z,1.65
2018-05-21T01:01:44.749Z,1.65
2018-05-21T01:01:57.146Z,1.65
2018-05-21T01:02:09.562Z,1.65
2018-05-21T01:02:21.998Z,1.65
2018-05-21T01:02:34.414Z,1.65
2018-05-21T01:02:46.830Z,1.65
2018-05-21T01:02:59.251Z,1.65
2018-05-21T01:03:11.678Z,1.65
2018-05-21T01:03:24.111Z,1.65
2018-05-21T01:03:36.571Z,1.65
2018-05-21T01:03:49.055Z,1.65
2018-05-21T01:04:01.476Z,1.65
2018-05-21T01:04:13.877Z,1.7
2018-05-21T01:04:26.334Z,1.7
2018-05-21T01:04:38.852Z,1.7
2018-05-21T01:04:51.280Z,1.7
2018-05-21T01:05:03.710Z,1.7
2018-05-21T01:05:16.206Z,1.7
2018-05-21T01:05:28.615Z,1.7
2018-05-21T01:05:41.035Z,1.7
2018-05-21T01:05:53.447Z,1.7
2018-05-21T01:06:05.830Z,1.7
2018-05-21T01:06:18.235Z,1.7
2018-05-21T01:06:30.646Z,1.7
2018-05-21T01:06:43.055Z,1.7
2018-05-21T01:06:55.464Z,1.7
2018-05-21T01:07:07.893Z,1.7
2018-05-21T01:07:20.307Z,1.7
2018-05-21T01:07:32.701Z,1.7
2018-05-21T01:07:45.113Z,1.7
2018-05-21T01:07:57.510Z,1.7
2018-05-21T01:08:09.929Z,1.7
2018-05-21T01:08:22.342Z,1.7
2018-05-21T01:08:34.738Z,1.7
2018-05-21T01:08:47.140Z,1.7
2018-05-21T01:08:59.538Z,1.7
2018-05-21T01:09:11.940Z,1.7
2018-05-21T01:09:24.335Z,1.7
2018-05-21T01:09:36.744Z,1.7
2018-05-21T01:09:49.136Z,1.7
2018-05-21T01:10:01.546Z,1.7
2018-05-21T01:10:13.951Z,1.7
2018-05-21T01:10:26.535Z,1.7
2018-05-21T01:10:38.929Z,1.7
2018-05-21T01:10:51.336Z,1.7
2018-05-21T01:11:03.778Z,1.7
2018-05-21T01:11:16.186Z,1.7
2018-05-21T01:11:28.591Z,1.7
2018-05-21T01:11:40.998Z,1.7
2018-05-21T01:11:53.556Z,1.7
2018-05-21T01:12:05.953Z,1.7
2018-05-21T01:12:18.360Z,1.7
2018-05-21T01:12:30.853Z,1.7
2018-05-21T01:12:43.263Z,1.7
2018-05-21T01:12:55.661Z,1.7
2018-05-21T01:13:08.071Z,1.7
2018-05-21T01:13:20.473Z,1.7
2018-05-21T01:13:32.909Z,1.7
2018-05-21T01:13:45.323Z,1.7
2018-05-21T01:13:57.721Z,1.7
2018-05-21T01:14:10.120Z,1.7
2018-05-21T01:14:22.624Z,1.7
2018-05-21T01:14:35.022Z,1.7
2018-05-21T01:14:47.414Z,1.7
2018-05-21T01:14:59.809Z,1.7
2018-05-21T01:15:12.230Z,1.7
2018-05-21T01:15:24.631Z,1.7
2018-05-21T01:15:37.244Z,1.7
2018-05-21T01:15:50.832Z,1.7
2018-05-21T01:16:03.250Z,1.7
2018-05-21T01:16:15.647Z,1.7
2018-05-21T01:16:28.060Z,1.7
2018-05-21T01:16:40.539Z,1.7
2018-05-21T01:16:52.936Z,1.7
2018-05-21T01:17:05.351Z,1.7
2018-05-21T01:17:17.749Z,1.7
2018-05-21T01:17:30.147Z,1.7
2018-05-21T01:17:42.583Z,1.7
2018-05-21T01:17:54.984Z,1.7
2018-05-21T01:18:07.410Z,1.7
2018-05-21T01:18:19.987Z,1.7
2018-05-21T01:18:32.406Z,1.7
2018-05-21T01:18:44.851Z,1.7
2018-05-21T01:18:57.259Z,1.7
2018-05-21T01:19:09.671Z,1.7
2018-05-21T01:19:22.096Z,1.7
2018-05-21T01:19:34.514Z,1.7
2018-05-21T01:19:46.915Z,1.7
2018-05-21T01:19:59.319Z,1.7
2018-05-21T01:20:11.736Z,1.7
2018-05-21T01:20:24.344Z,1.7
2018-05-21T01:20:36.759Z,1.7
2018-05-21T01:20:49.166Z,1.7
2018-05-21T01:21:01.565Z,1.7
2018-05-21T01:21:13.972Z,1.7
2018-05-21T01:21:26.402Z,1.7
2018-05-21T01:21:38.808Z,1.7
2018-05-21T01:21:51.220Z,1.7
2018-05-21T01:22:03.648Z,1.7
2018-05-21T01:22:16.046Z,1.7
2018-05-21T01:22:28.460Z,1.7
2018-05-21T01:22:40.923Z,1.7
2018-05-21T01:22:53.358Z,1.7
2018-05-21T01:23:05.769Z,1.7
2018-05-21T01:23:18.231Z,1.7
2018-05-21T01:23:30.646Z,1.7
2018-05-21T01:23:43.046Z,1.7
2018-05-21T01:23:55.438Z,1.7
2018-05-21T01:24:07.919Z,1.7
2018-05-21T01:24:20.334Z,1.81
2018-05-21T01:24:32.746Z,1.81
2018-05-21T01:24:45.155Z,1.81
2018-05-21T01:24:57.734Z,1.81
2018-05-21T01:25:10.151Z,1.81
2018-05-21T01:25:22.546Z,1.81
2018-05-21T01:25:35.042Z,1.81
2018-05-21T01:25:47.451Z,1.81
2018-05-21T01:25:59.864Z,1.81
2018-05-21T01:26:12.365Z,1.81
2018-05-21T01:26:24.851Z,1.81
2018-05-21T01:26:37.258Z,1.81
2018-05-21T01:26:49.650Z,1.81
2018-05-21T01:27:02.072Z,1.81
2018-05-21T01:27:14.469Z,1.81
2018-05-21T01:27:26.866Z,1.81
2018-05-21T01:27:39.352Z,1.81
2018-05-21T01:27:51.782Z,1.81
2018-05-21T01:28:04.183Z,1.81
2018-05-21T01:28:16.570Z,1.81
2018-05-21T01:28:28.977Z,1.81
2018-05-21T01:28:41.470Z,1.81
2018-05-21T01:28:53.881Z,1.81
2018-05-21T01:29:06.290Z,1.81
2018-05-21T01:29:18.686Z,1.81
2018-05-21T01:29:31.091Z,1.81
2018-05-21T01:29:43.490Z,1.81
2018-05-21T01:29:55.928Z,1.81
2018-05-21T01:30:08.401Z,1.81
2018-05-21T01:30:20.798Z,1.81
2018-05-21T01:30:33.201Z,1.81
2018-05-21T01:30:45.612Z,1.81
2018-05-21T01:30:58.008Z,1.81
2018-05-21T01:31:10.426Z,1.81
2018-05-21T01:31:22.964Z,1.81
2018-05-21T01:31:35.375Z,1.81
2018-05-21T01:31:47.852Z,1.81
2018-05-21T01:32:00.254Z,1.81
2018-05-21T01:32:12.651Z,1.81
2018-05-21T01:32:25.052Z,1.81
2018-05-21T01:32:37.551Z,1.81
2018-05-21T01:32:49.953Z,1.81
2018-05-21T01:33:02.350Z,1.81
2018-05-21T01:33:14.784Z,1.81
2018-05-21T01:33:27.182Z,1.81
2018-05-21T01:33:39.594Z,1.81
2018-05-21T01:33:52.092Z,1.81
2018-05-21T01:34:04.501Z,1.81
2018-05-21T01:34:16.995Z,1.92
2018-05-21T01:34:29.389Z,1.92
2018-05-21T01:34:41.796Z,1.92
2018-05-21T01:34:54.201Z,1.92
2018-05-21T01:35:06.598Z,1.92
2018-05-21T01:35:18.995Z,1.92
2018-05-21T01:35:31.408Z,1.92
2018-05-21T01:35:43.811Z,1.92
2018-05-21T01:35:56.219Z,1.92
2018-05-21T01:36:08.728Z,1.92
2018-05-21T01:36:21.255Z,1.92
2018-05-21T01:36:33.655Z,1.92
2018-05-21T01:36:46.050Z,1.92
2018-05-21T01:36:58.463Z,1.92
2018-05-21T01:37:10.868Z,1.92
2018-05-21T01:37:23.279Z,1.92
2018-05-21T01:37:35.693Z,1.92
2018-05-21T01:37:48.104Z,1.92
2018-05-21T01:38:00.508Z,1.92
2018-05-21T01:38:12.911Z,1.92
2018-05-21T01:38:25.304Z,1.92
2018-05-21T01:38:37.697Z,1.92
2018-05-21T01:38:50.177Z,1.92
2018-05-21T01:39:02.587Z,1.92
2018-05-21T01:39:15.047Z,1.92
2018-05-21T01:39:27.457Z,1.92
2018-05-21T01:39:39.847Z,1.92
2018-05-21T01:39:52.250Z,1.92
2018-05-21T01:40:04.669Z,1.92
2018-05-21T01:40:17.166Z,1.92
2018-05-21T01:40:29.760Z,1.92
2018-05-21T01:40:42.166Z,1.92
2018-05-21T01:40:54.569Z,1.92
2018-05-21T01:41:06.968Z,1.92
2018-05-21T01:41:19.485Z,1.92
2018-05-21T01:41:31.881Z,1.92
2018-05-21T01:41:44.282Z,1.92
2018-05-21T01:41:56.676Z,1.92
2018-05-21T01:42:09.068Z,1.92
2018-05-21T01:42:21.474Z,1.92
2018-05-21T01:42:33.883Z,1.92
2018-05-21T01:42:46.292Z,1.92
2018-05-21T01:42:58.687Z,1.92
2018-05-21T01:43:11.080Z,1.92
2018-05-21T01:43:23.487Z,1.92
2018-05-21T01:43:35.878Z,1.92
2018-05-21T01:43:48.266Z,1.92
2018-05-21T01:44:00.659Z,1.92
2018-05-21T01:44:13.060Z,1.92
2018-05-21T01:44:25.451Z,1.7
2018-05-21T01:44:37.941Z,1.7
2018-05-21T01:44:50.368Z,1.7
2018-05-21T01:45:02.812Z,1.7
2018-05-21T01:45:15.229Z,1.7
2018-05-21T01:45:27.899Z,1.7
2018-05-21T01:45:40.308Z,1.7
2018-05-21T01:45:52.715Z,1.7
2018-05-21T01:46:05.123Z,1.7
2018-05-21T01:46:17.524Z,1.7
2018-05-21T01:46:29.942Z,1.7
2018-05-21T01:46:42.338Z,1.7
2018-05-21T01:46:54.767Z,1.7
2018-05-21T01:47:07.165Z,1.7
2018-05-21T01:47:19.577Z,1.7
2018-05-21T01:47:32.000Z,1.7
2018-05-21T01:47:44.416Z,1.7
2018-05-21T01:47:56.838Z,1.7
2018-05-21T01:48:09.339Z,1.7
2018-05-21T01:48:21.898Z,1.7
2018-05-21T01:48:34.324Z,1.7
2018-05-21T01:48:46.728Z,1.7
2018-05-21T01:48:59.140Z,1.7
2018-05-21T01:49:11.719Z,1.7
2018-05-21T01:49:24.154Z,1.7
2018-05-21T01:49:36.576Z,1.7
2018-05-21T01:49:48.991Z,1.7
2018-05-21T01:50:01.410Z,1.7
2018-05-21T01:50:13.872Z,1.7
2018-05-21T01:50:26.300Z,1.7
2018-05-21T01:50:38.712Z,1.7
2018-05-21T01:50:51.119Z,1.7
2018-05-21T01:51:03.528Z,1.7
2018-05-21T01:51:15.953Z,1.7
2018-05-21T01:51:28.358Z,1.7
2018-05-21T01:51:40.758Z,1.7
2018-05-21T01:51:53.164Z,1.7
2018-05-21T01:52:05.591Z,1.7
2018-05-21T01:52:18.006Z,1.7
2018-05-21T01:52:30.441Z,1.7
2018-05-21T01:52:42.846Z,1.7
2018-05-21T01:52:55.251Z,1.7
2018-05-21T01:53:07.657Z,1.7
2018-05-21T01:53:20.057Z,1.7
2018-05-21T01:53:32.449Z,1.7
2018-05-21T01:53:44.850Z,1.7
2018-05-21T01:53:57.246Z,1.7
2018-05-21T01:54:09.650Z,1.7
2018-05-21T01:54:22.071Z,1.92
2018-05-21T01:54:34.571Z,1.92
2018-05-21T01:54:47.026Z,1.92
2018-05-21T01:54:59.434Z,1.92
2018-05-21T01:55:11.854Z,1.92
2018-05-21T01:55:24.254Z,1.92
2018-05-21T01:55:36.661Z,1.92
2018-05-21T01:55:49.068Z,1.92
2018-05-21T01:56:01.477Z,1.92
2018-05-21T01:56:13.888Z,1.92
2018-05-21T01:56:26.292Z,1.92
2018-05-21T01:56:38.701Z,1.92
2018-05-21T01:56:51.194Z,1.92
2018-05-21T01:57:03.613Z,1.92
2018-05-21T01:57:16.024Z,1.92
2018-05-21T01:57:28.426Z,1.92
2018-05-21T01:57:40.835Z,1.92
2018-05-21T01:57:53.552Z,1.92
2018-05-21T01:58:05.944Z,1.92
2018-05-21T01:58:18.371Z,1.92
2018-05-21T01:58:30.845Z,1.92
2018-05-21T01:58:43.291Z,1.92
2018-05-21T01:58:55.701Z,1.92
2018-05-21T01:59:08.150Z,1.92
2018-05-21T01:59:20.575Z,1.92
2018-05-21T01:59:32.989Z,1.92
2018-05-21T01:59:45.415Z,1.92
2018-05-21T01:59:57.907Z,1.92
2018-05-21T02:00:10.358Z,1.92
2018-05-21T02:00:23.008Z,1.92
2018-05-21T02:00:35.451Z,1.92
2018-05-21T02:00:47.891Z,1.92
2018-05-21T02:01:00.408Z,1.92
2018-05-21T02:01:12.831Z,1.92
2018-05-21T02:01:25.234Z,1.92
2018-05-21T02:01:37.645Z,1.92
2018-05-21T02:01:50.081Z,1.92
2018-05-21T02:02:02.503Z,1.92
2018-05-21T02:02:14.933Z,1.92
2018-05-21T02:02:27.350Z,1.92
2018-05-21T02:02:39.762Z,1.92
2018-05-21T02:02:52.197Z,1.92
2018-05-21T02:03:04.618Z,1.92
2018-05-21T02:03:17.018Z,1.92
2018-05-21T02:03:29.437Z,1.92
2018-05-21T02:03:41.887Z,1.92
2018-05-21T02:03:54.306Z,1.92
2018-05-21T02:04:06.732Z,1.92
2018-05-21T02:04:19.178Z,1.63
2018-05-21T02:04:31.579Z,1.63
2018-05-21T02:04:43.994Z,1.63
2018-05-21T02:04:56.433Z,1.63
2018-05-21T02:05:08.863Z,1.63
2018-05-21T02:05:21.270Z,1.63
2018-05-21T02:05:33.672Z,1.63
2018-05-21T02:05:46.074Z,1.63
2018-05-21T02:05:58.507Z,1.63
2018-05-21T02:06:10.902Z,1.63
2018-05-21T02:06:23.327Z,1.63
2018-05-21T02:06:35.728Z,1.63
2018-05-21T02:06:48.133Z,1.63
2018-05-21T02:07:00.539Z,1.63
2018-05-21T02:07:12.936Z,1.63
2018-05-21T02:07:25.351Z,1.63
2018-05-21T02:07:37.753Z,1.63
2018-05-21T02:07:50.158Z,1.63
2018-05-21T02:08:02.563Z,1.63
2018-05-21T02:08:15.135Z,1.63
2018-05-21T02:08:28.611Z,1.63
2018-05-21T02:08:41.954Z,1.63
2018-05-21T02:08:54.378Z,1.63
2018-05-21T02:09:06.867Z,1.63
2018-05-21T02:09:19.359Z,1.63
2018-05-21T02:09:31.969Z,1.63
2018-05-21T02:09:44.396Z,1.63
2018-05-21T02:09:56.813Z,1.63
2018-05-21T02:10:09.240Z,1.63
2018-05-21T02:10:21.651Z,1.63
2018-05-21T02:10:34.058Z,1.63
2018-05-21T02:10:46.466Z,1.63
2018-05-21T02:10:58.869Z,1.63
2018-05-21T02:11:11.288Z,1.63
2018-05-21T02:11:23.688Z,1.63
2018-05-21T02:11:36.112Z,1.63
2018-05-21T02:11:48.521Z,1.63
2018-05-21T02:12:01.108Z,1.63
2018-05-21T02:12:13.546Z,1.63
2018-05-21T02:12:25.979Z,1.63
2018-05-21T02:12:38.378Z,1.63
2018-05-21T02:12:50.807Z,1.63
2018-05-21T02:13:03.215Z,1.63
2018-05-21T02:13:15.655Z,1.63
2018-05-21T02:13:28.063Z,1.63
2018-05-21T02:13:40.479Z,1.63
2018-05-21T02:13:52.934Z,1.63
2018-05-21T02:14:05.369Z,1.63
2018-05-21T02:14:17.929Z,1.6
2018-05-21T02:14:30.346Z,1.6
2018-05-21T02:14:42.836Z,1.6
2018-05-21T02:14:55.267Z,1.6
2018-05-21T02:15:07.684Z,1.6
2018-05-21T02:15:20.170Z,1.6
2018-05-21T02:15:32.567Z,1.6
2018-05-21T02:15:45.172Z,1.6
2018-05-21T02:15:57.583Z,1.6
2018-05-21T02:16:09.999Z,1.6
2018-05-21T02:16:22.407Z,1.6
2018-05-21T02:16:34.814Z,1.6
2018-05-21T02:16:47.220Z,1.6
2018-05-21T02:16:59.705Z,1.6
2018-05-21T02:17:12.117Z,1.6
2018-05-21T02:17:24.509Z,1.6
2018-05-21T02:17:36.956Z,1.6
2018-05-21T02:17:49.429Z,1.6
2018-05-21T02:18:01.847Z,1.6
2018-05-21T02:18:14.437Z,1.6
2018-05-21T02:18:26.847Z,1.6
2018-05-21T02:18:39.270Z,1.6
2018-05-21T02:18:51.691Z,1.6
2018-05-21T02:19:04.091Z,1.6
2018-05-21T02:19:16.506Z,1.6
2018-05-21T02:19:28.996Z,1.6
2018-05-21T02:19:41.408Z,1.6
2018-05-21T02:19:53.841Z,1.6
2018-05-21T02:20:07.214Z,1.6
2018-05-21T02:20:19.937Z,1.6
2018-05-21T02:20:32.345Z,1.6
2018-05-21T02:20:44.760Z,1.6
2018-05-21T02:20:57.175Z,1.6
2018-05-21T02:21:09.671Z,1.6
2018-05-21T02:21:22.076Z,1.6
2018-05-21T02:21:34.483Z,1.6
2018-05-21T02:21:46.902Z,1.6
2018-05-21T02:21:59.338Z,1.6
2018-05-21T02:22:11.758Z,1.6
2018-05-21T02:22:24.174Z,1.6
2018-05-21T02:22:36.587Z,1.6
2018-05-21T02:22:49.001Z,1.6
2018-05-21T02:23:01.404Z,1.6
2018-05-21T02:23:13.907Z,1.6
2018-05-21T02:23:26.314Z,1.6
2018-05-21T02:23:38.731Z,1.6
2018-05-21T02:23:51.150Z,1.6
2018-05-21T02:24:03.548Z,1.6
2018-05-21T02:24:15.951Z,1.6
2018-05-21T02:24:28.422Z,1.51
2018-05-21T02:24:40.847Z,1.51
2018-05-21T02:24:53.334Z,1.51
2018-05-21T02:25:05.724Z,1.51
2018-05-21T02:25:18.127Z,1.51
2018-05-21T02:25:30.537Z,1.51
2018-05-21T02:25:42.942Z,1.51
2018-05-21T02:25:55.364Z,1.51
2018-05-21T02:26:07.785Z,1.51
2018-05-21T02:26:20.189Z,1.51
2018-05-21T02:26:32.633Z,1.51
2018-05-21T02:26:45.035Z,1.51
2018-05-21T02:26:57.788Z,1.51
2018-05-21T02:27:11.403Z,1.51
2018-05-21T02:27:23.808Z,1.51
2018-05-21T02:27:36.213Z,1.51
2018-05-21T02:27:48.603Z,1.51
2018-05-21T02:28:01.008Z,1.51
2018-05-21T02:28:13.422Z,1.51
2018-05-21T02:28:25.903Z,1.51
2018-05-21T02:28:38.317Z,1.51
2018-05-21T02:28:50.727Z,1.51
2018-05-21T02:29:03.142Z,1.51
2018-05-21T02:29:15.550Z,1.51
2018-05-21T02:29:27.984Z,1.51
2018-05-21T02:29:40.402Z,1.51
2018-05-21T02:29:52.880Z,1.51
2018-05-21T02:30:05.309Z,1.51
2018-05-21T02:30:17.725Z,1.51
2018-05-21T02:30:30.159Z,1.51
2018-05-21T02:30:42.578Z,1.51
2018-05-21T02:30:55.011Z,1.51
2018-05-21T02:31:07.437Z,1.51
2018-05-21T02:31:19.869Z,1.51
2018-05-21T02:31:32.318Z,1.51
2018-05-21T02:31:44.754Z,1.51
2018-05-21T02:31:57.359Z,1.51
2018-05-21T02:32:09.821Z,1.51
2018-05-21T02:32:22.247Z,1.51
2018-05-21T02:32:34.667Z,1.51
2018-05-21T02:32:47.079Z,1.51
2018-05-21T02:32:59.508Z,1.51
2018-05-21T02:33:11.929Z,1.51
2018-05-21T02:33:24.370Z,1.51
2018-05-21T02:33:36.861Z,1.51
2018-05-21T02:33:49.305Z,1.51
2018-05-21T02:34:01.745Z,1.51
2018-05-21T02:34:14.176Z,1.51
2018-05-21T02:34:26.593Z,1.45
2018-05-21T02:34:39.037Z,1.45
2018-05-21T02:34:51.453Z,1.45
2018-05-21T02:35:03.885Z,1.45
2018-05-21T02:35:16.315Z,1.45
2018-05-21T02:35:28.728Z,1.45
2018-05-21T02:35:41.172Z,1.45
2018-05-21T02:35:53.589Z,1.45
2018-05-21T02:36:06.035Z,1.45
2018-05-21T02:36:18.453Z,1.45
2018-05-21T02:36:30.889Z,1.45
2018-05-21T02:36:43.341Z,1.45
2018-05-21T02:36:55.819Z,1.45
2018-05-21T02:37:08.262Z,1.45
2018-05-21T02:37:20.694Z,1.45
2018-05-21T02:37:33.109Z,1.45
2018-05-21T02:37:45.562Z,1.45
2018-05-21T02:37:57.992Z,1.45
2018-05-21T02:38:10.435Z,1.45
2018-05-21T02:38:22.905Z,1.45
2018-05-21T02:38:35.318Z,1.45
2018-05-21T02:38:47.756Z,1.45
2018-05-21T02:39:00.171Z,1.45
2018-05-21T02:39:12.622Z,1.45
2018-05-21T02:39:25.074Z,1.45
2018-05-21T02:39:37.528Z,1.45
2018-05-21T02:39:49.951Z,1.45
2018-05-21T02:40:02.396Z,1.45
2018-05-21T02:40:14.820Z,1.45
2018-05-21T02:40:27.266Z,1.45
2018-05-21T02:40:39.718Z,1.45
2018-05-21T02:40:52.139Z,1.45
2018-05-21T02:41:04.571Z,1.45
2018-05-21T02:41:17.002Z,1.45
2018-05-21T02:41:29.438Z,1.45
2018-05-21T02:41:41.860Z,1.45
2018-05-21T02:41:54.311Z,1.45
2018-05-21T02:42:06.767Z,1.45
2018-05-21T02:42:19.175Z,1.45
2018-05-21T02:42:31.610Z,1.45
2018-05-21T02:42:44.043Z,1.45
2018-05-21T02:42:56.479Z,1.45
2018-05-21T02:43:08.889Z,1.45
2018-05-21T02:43:21.362Z,1.45
2018-05-21T02:43:33.817Z,1.45
2018-05-21T02:43:46.276Z,1.45
2018-05-21T02:43:58.715Z,1.45
2018-05-21T02:44:11.146Z,1.45
2018-05-21T02:44:23.561Z,1.55
2018-05-21T02:44:35.986Z,1.55
2018-05-21T02:44:48.414Z,1.55
2018-05-21T02:45:00.807Z,1.55
2018-05-21T02:45:13.210Z,1.55
2018-05-21T02:45:25.957Z,1.55
2018-05-21T02:45:38.375Z,1.55
2018-05-21T02:45:50.783Z,1.55
2018-05-21T02:46:03.198Z,1.55
2018-05-21T02:46:15.601Z,1.55
2018-05-21T02:46:28.020Z,1.55
2018-05-21T02:46:40.439Z,1.55
2018-05-21T02:46:52.928Z,1.55
2018-05-21T02:47:05.395Z,1.55
2018-05-21T02:47:17.833Z,1.55
2018-05-21T02:47:30.249Z,1.55
2018-05-21T02:47:42.661Z,1.55